createdAt,value
2022-09-03T00:00:56.989Z,2.47
2022-09-03T00:03:43.642Z,2.17
2022-09-03T00:06:17.985Z,2.22
2022-09-03T00:08:53.220Z,2.45
2022-09-03T00:11:32.661Z,2.00
2022-09-03T00:14:03.460Z,2.60
2022-09-03T00:16:51.277Z,2.33
2022-09-03T00:19:23.430Z,2.30
2022-09-03T00:22:19.348Z,1.83
2022-09-03T00:24:48.966Z,2.42
2022-09-03T00:27:26.406Z,2.50
2022-09-03T00:30:01.753Z,2.83
2022-09-03T00:32:41.897Z,2.47
2022-09-03T00:35:18.202Z,1.88
2022-09-03T00:37:45.433Z,2.15
2022-09-03T00:40:50.420Z,2.40
2022-09-03T00:43:48.305Z,2.72
2022-09-03T00:46:35.294Z,2.20
2022-09-03T00:49:30.419Z,2.28
2022-09-03T00:52:20.426Z,2.40
2022-09-03T00:55:27.557Z,2.40
2022-09-03T00:58:00.662Z,2.80
2022-09-03T01:00:29.287Z,2.17
2022-09-03T01:03:09.799Z,2.20
2022-09-03T01:05:39.513Z,2.70
2022-09-03T01:08:35.415Z,2.60
2022-09-03T01:11:22.169Z,2.58
2022-09-03T01:14:06.561Z,2.58
2022-09-03T01:17:07.189Z,2.45
2022-09-03T01:20:03.423Z,2.42
2022-09-03T01:22:39.631Z,2.30
2022-09-03T01:25:22.861Z,3.00
2022-09-03T01:28:10.359Z,2.25
2022-09-03T01:30:49.476Z,2.47
2022-09-03T01:33:38.811Z,2.00
2022-09-03T01:36:22.610Z,2.10
2022-09-03T01:38:59.449Z,2.28
2022-09-03T01:42:00.315Z,2.50
2022-09-03T01:45:01.949Z,2.70
2022-09-03T01:48:20.110Z,2.40
2022-09-03T01:50:52.448Z,2.65
2022-09-03T01:53:47.470Z,2.40
2022-09-03T01:56:52.272Z,2.40
2022-09-03T01:59:44.476Z,2.67
2022-09-03T02:02:26.257Z,2.80
2022-09-03T02:05:09.301Z,2.40
2022-09-03T02:07:40.098Z,2.45
2022-09-03T02:10:13.591Z,2.60
2022-09-03T02:12:44.385Z,2.40
2022-09-03T02:15:14.757Z,2.13
2022-09-03T02:17:45.930Z,2.20
2022-09-03T02:20:20.379Z,2.80
2022-09-03T02:22:49.789Z,2.33
2022-09-03T02:25:17.918Z,2.67
2022-09-03T02:27:46.321Z,2.45
2022-09-03T02:30:13.785Z,2.78
2022-09-03T02:32:41.655Z,2.50
2022-09-03T02:35:09.507Z,2.75
2022-09-03T02:37:36.653Z,2.42
2022-09-03T02:40:08.943Z,2.97
2022-09-03T02:42:37.005Z,3.10
2022-09-03T02:45:19.623Z,3.33
2022-09-03T02:47:49.527Z,2.60
2022-09-03T02:50:16.760Z,2.70
2022-09-03T02:52:43.906Z,2.80
2022-09-03T02:55:11.287Z,2.92
2022-09-03T02:57:38.602Z,2.83
2022-09-03T03:00:06.439Z,3.15
2022-09-03T03:02:33.696Z,2.70
2022-09-03T03:05:02.383Z,2.40
2022-09-03T03:07:38.111Z,2.53
2022-09-03T03:10:05.792Z,2.58
2022-09-03T03:12:35.575Z,2.65
2022-09-03T03:15:03.357Z,2.88
2022-09-03T03:17:30.913Z,3.10
2022-09-03T03:19:58.200Z,2.80
2022-09-03T03:22:25.662Z,2.72
2022-09-03T03:24:53.210Z,2.70
2022-09-03T03:27:21.137Z,2.78
2022-09-03T03:29:48.294Z,2.40
2022-09-03T03:32:15.461Z,2.70
2022-09-03T03:34:43.684Z,2.70
2022-09-03T03:37:10.801Z,2.70
2022-09-03T03:39:38.002Z,2.92
2022-09-03T03:42:05.297Z,2.70
2022-09-03T03:44:33.615Z,3.17
2022-09-03T03:47:00.805Z,3.55
2022-09-03T03:49:27.906Z,3.33
2022-09-03T03:51:55.121Z,2.50
2022-09-03T03:54:22.931Z,2.92
2022-09-03T03:56:55.419Z,3.00
2022-09-03T03:59:23.195Z,2.90
2022-09-03T04:01:51.052Z,3.00
2022-09-03T04:04:18.464Z,3.20
2022-09-03T04:06:45.711Z,3.13
2022-09-03T04:09:12.963Z,2.50
2022-09-03T04:11:40.204Z,3.42
2022-09-03T04:14:07.382Z,2.80
2022-09-03T04:16:34.680Z,3.33
2022-09-03T04:19:02.214Z,3.55
2022-09-03T04:21:31.050Z,3.15
2022-09-03T04:23:58.766Z,3.03
2022-09-03T04:26:31.733Z,3.10
2022-09-03T04:29:05.436Z,2.65
2022-09-03T04:31:33.347Z,2.70
2022-09-03T04:34:00.871Z,2.72
2022-09-03T04:36:31.301Z,3.38
2022-09-03T04:39:02.449Z,2.72
2022-09-03T04:41:31.232Z,3.15
2022-09-03T04:43:59.623Z,3.00
2022-09-03T04:46:33.979Z,2.83
2022-09-03T04:49:02.501Z,2.97
2022-09-03T04:51:33.148Z,2.92
2022-09-03T04:54:01.952Z,3.10
2022-09-03T04:56:35.217Z,2.65
2022-09-03T04:59:09.121Z,2.60
2022-09-03T05:01:39.374Z,2.75
2022-09-03T05:04:07.706Z,2.63
2022-09-03T05:06:37.475Z,3.30
2022-09-03T05:09:05.870Z,3.15
2022-09-03T05:11:33.475Z,2.97
2022-09-03T05:14:01.281Z,2.90
2022-09-03T05:16:30.494Z,3.08
2022-09-03T05:18:59.922Z,3.20
2022-09-03T05:21:28.897Z,3.13
2022-09-03T05:23:56.621Z,3.00
2022-09-03T05:26:28.814Z,2.80
2022-09-03T05:28:57.949Z,2.63
2022-09-03T05:31:28.448Z,2.92
2022-09-03T05:33:59.118Z,2.90
2022-09-03T05:36:28.758Z,2.67
2022-09-03T05:38:56.490Z,3.05
2022-09-03T05:41:26.294Z,3.30
2022-09-03T05:43:59.773Z,2.55
2022-09-03T05:46:33.622Z,2.53
2022-09-03T05:49:05.713Z,2.50
2022-09-03T05:51:34.328Z,2.42
2022-09-03T05:54:02.897Z,2.72
2022-09-03T05:56:31.820Z,2.63
2022-09-03T05:59:01.971Z,2.80
2022-09-03T06:01:32.249Z,2.78
2022-09-03T06:04:07.710Z,2.30
2022-09-03T06:06:37.413Z,2.67
2022-09-03T06:09:07.178Z,3.30
2022-09-03T06:11:36.167Z,2.83
2022-09-03T06:14:06.001Z,2.40
2022-09-03T06:16:35.905Z,2.60
2022-09-03T06:19:04.019Z,2.70
2022-09-03T06:21:31.089Z,2.70
2022-09-03T06:23:59.619Z,2.88
2022-09-03T06:26:28.918Z,2.95
2022-09-03T06:28:57.533Z,2.95
2022-09-03T06:31:25.405Z,2.90
2022-09-03T06:33:54.880Z,3.10
2022-09-03T06:36:24.458Z,2.63
2022-09-03T06:38:56.647Z,2.60
2022-09-03T06:41:26.317Z,2.85
2022-09-03T06:43:57.396Z,2.60
2022-09-03T06:46:25.160Z,3.13
2022-09-03T06:48:53.552Z,2.65
2022-09-03T06:51:23.675Z,2.90
2022-09-03T06:53:56.687Z,3.05
2022-09-03T06:56:27.357Z,2.97
2022-09-03T06:58:57.344Z,2.50
2022-09-03T07:01:31.691Z,3.05
2022-09-03T07:04:03.616Z,3.10
2022-09-03T07:06:39.781Z,3.22
2022-09-03T07:09:07.963Z,2.97
2022-09-03T07:11:36.142Z,2.60
2022-09-03T07:14:05.081Z,2.92
2022-09-03T07:16:37.253Z,3.80
2022-09-03T07:19:06.169Z,2.95
2022-09-03T07:21:36.956Z,2.88
2022-09-03T07:24:05.936Z,3.30
2022-09-03T07:26:36.590Z,3.70
2022-09-03T07:29:03.972Z,3.78
2022-09-03T07:31:34.211Z,3.92
2022-09-03T07:34:09.993Z,3.47
2022-09-03T07:36:47.705Z,2.88
2022-09-03T07:39:18.126Z,3.92
2022-09-03T07:41:46.610Z,3.60
2022-09-03T07:44:16.423Z,3.10
2022-09-03T07:46:45.548Z,4.22
2022-09-03T07:49:13.195Z,4.35
2022-09-03T07:51:40.666Z,4.20
2022-09-03T07:54:11.270Z,4.20
2022-09-03T07:56:40.162Z,4.10
2022-09-03T07:59:07.770Z,4.00
2022-09-03T08:01:36.048Z,4.50
2022-09-03T08:04:04.454Z,4.70
2022-09-03T08:06:34.114Z,9.60
2022-09-03T08:09:08.231Z,5.70
2022-09-03T08:14:11.938Z,4.57
2022-09-03T08:16:42.438Z,4.40
2022-09-03T08:19:11.489Z,4.43
2022-09-03T08:21:38.709Z,4.65
2022-09-03T08:24:06.608Z,3.97
2022-09-03T08:26:36.743Z,4.10
2022-09-03T08:29:04.718Z,5.05
2022-09-03T08:31:32.964Z,4.30
2022-09-03T08:34:05.057Z,4.10
2022-09-03T08:36:35.072Z,4.50
2022-09-03T08:39:05.177Z,4.75
2022-09-03T08:41:52.980Z,4.68
2022-09-03T08:44:21.671Z,5.15
2022-09-03T08:46:48.830Z,4.43
2022-09-03T08:49:18.704Z,4.90
2022-09-03T08:51:48.149Z,4.72
2022-09-03T08:54:16.431Z,4.45
2022-09-03T08:56:44.110Z,4.90
2022-09-03T08:59:11.340Z,4.65
2022-09-03T09:01:52.169Z,4.65
2022-09-03T09:04:54.479Z,4.33
2022-09-03T09:07:31.928Z,4.78
2022-09-03T09:10:27.253Z,4.30
2022-09-03T09:13:36.855Z,4.63
2022-09-03T09:16:33.486Z,4.78
2022-09-03T09:19:13.788Z,4.50
2022-09-03T09:21:46.360Z,4.05
2022-09-03T09:24:23.449Z,4.28
2022-09-03T09:26:56.367Z,4.60
2022-09-03T09:29:32.495Z,3.97
2022-09-03T09:31:59.626Z,3.97
2022-09-03T09:34:27.861Z,4.45
2022-09-03T09:36:56.235Z,3.70
2022-09-03T09:39:23.982Z,4.07
2022-09-03T09:41:59.842Z,4.53
2022-09-03T09:44:28.753Z,4.45
2022-09-03T09:47:24.719Z,3.97
2022-09-03T09:49:55.657Z,3.92
2022-09-03T09:52:26.116Z,4.20
2022-09-03T09:55:08.157Z,3.85
2022-09-03T09:57:35.378Z,3.38
2022-09-03T10:00:09.579Z,4.68
2022-09-03T10:02:52.177Z,4.78
2022-09-03T10:05:30.792Z,5.00
2022-09-03T10:08:22.854Z,4.47
2022-09-03T10:10:51.366Z,3.60
2022-09-03T10:13:43.091Z,3.60
2022-09-03T10:16:36.737Z,4.10
2022-09-03T10:19:34.739Z,3.28
2022-09-03T10:22:19.990Z,3.70
2022-09-03T10:24:58.141Z,3.40
2022-09-03T10:27:25.920Z,3.22
2022-09-03T10:29:53.540Z,3.03
2022-09-03T10:32:39.445Z,3.17
2022-09-03T10:35:31.375Z,3.83
2022-09-03T10:38:30.153Z,3.20
2022-09-03T10:41:29.004Z,3.20
2022-09-03T10:44:20.465Z,3.50
2022-09-03T10:47:09.396Z,3.55
2022-09-03T10:50:02.243Z,3.10
2022-09-03T10:52:54.311Z,3.38
2022-09-03T10:55:45.553Z,3.70
2022-09-03T10:58:38.379Z,3.47
2022-09-03T11:01:28.207Z,3.55
2022-09-03T11:04:01.318Z,3.60
2022-09-03T11:06:30.651Z,3.20
2022-09-03T11:09:16.414Z,3.20
2022-09-03T11:11:51.524Z,3.92
2022-09-03T11:14:45.897Z,3.72
2022-09-03T11:17:28.246Z,3.20
2022-09-03T11:20:19.698Z,3.55
2022-09-03T11:22:49.536Z,3.70
2022-09-03T11:25:23.891Z,3.60
2022-09-03T11:28:08.714Z,3.47
2022-09-03T11:31:13.738Z,3.35
2022-09-03T11:34:31.705Z,3.50
2022-09-03T11:37:21.123Z,3.78
2022-09-03T11:39:58.273Z,3.60
2022-09-03T11:42:39.726Z,3.63
2022-09-03T11:45:33.138Z,3.70
2022-09-03T11:48:00.314Z,3.33
2022-09-03T11:50:33.796Z,3.53
2022-09-03T11:53:16.633Z,3.45
2022-09-03T11:55:57.316Z,3.95
2022-09-03T11:58:29.277Z,3.08
2022-09-03T12:00:58.559Z,2.80
2022-09-03T12:03:30.511Z,3.10
2022-09-03T12:06:27.868Z,3.83
2022-09-03T12:09:04.245Z,3.50
2022-09-03T12:12:00.055Z,3.53
2022-09-03T12:14:39.184Z,3.95
2022-09-03T12:17:45.236Z,3.88
2022-09-03T12:20:15.851Z,3.88
2022-09-03T12:22:43.655Z,3.97
2022-09-03T12:25:13.477Z,3.90
2022-09-03T12:27:44.410Z,4.03
2022-09-03T12:30:21.720Z,3.78
2022-09-03T12:32:50.357Z,3.72
2022-09-03T12:38:09.545Z,4.13
2022-09-03T12:43:39.147Z,4.00
2022-09-03T12:46:14.832Z,4.35
2022-09-03T12:49:30.510Z,3.85
2022-09-03T12:52:07.746Z,3.70
2022-09-03T12:54:40.810Z,4.93
2022-09-03T12:57:09.639Z,3.83
2022-09-03T12:59:39.626Z,3.75
2022-09-03T13:02:24.420Z,3.45
2022-09-03T13:04:53.432Z,3.53
2022-09-03T13:07:34.760Z,3.88
2022-09-03T13:10:07.965Z,4.05
2022-09-03T13:12:52.564Z,4.30
2022-09-03T13:15:24.055Z,3.95
2022-09-03T13:18:04.790Z,4.20
2022-09-03T13:20:47.057Z,3.83
2022-09-03T13:23:29.986Z,3.83
2022-09-03T13:26:12.041Z,3.75
2022-09-03T13:28:58.413Z,3.70
2022-09-03T13:31:36.154Z,3.72
2022-09-03T13:34:21.757Z,4.13
2022-09-03T13:37:04.782Z,3.80
2022-09-03T13:39:51.143Z,3.97
2022-09-03T13:42:33.058Z,3.70
2022-09-03T13:45:23.436Z,4.50
2022-09-03T13:48:16.207Z,3.88
2022-09-03T13:50:57.785Z,4.10
2022-09-03T13:53:45.042Z,3.63
2022-09-03T13:56:36.354Z,3.83
2022-09-03T13:59:17.364Z,4.30
2022-09-03T14:02:13.269Z,4.68
2022-09-03T14:04:57.398Z,4.40
2022-09-03T14:07:28.435Z,4.40
2022-09-03T14:10:10.333Z,3.55
2022-09-03T14:12:47.044Z,3.92
2022-09-03T14:15:54.497Z,3.75
2022-09-03T14:18:52.069Z,4.47
2022-09-03T14:21:29.527Z,4.20
2022-09-03T14:24:04.790Z,4.45
2022-09-03T14:26:41.757Z,4.07
2022-09-03T14:29:17.167Z,4.13
2022-09-03T14:31:59.425Z,3.72
2022-09-03T14:34:38.599Z,3.92
2022-09-03T14:37:24.043Z,4.60
2022-09-03T14:40:16.199Z,4.45
2022-09-03T14:43:07.950Z,3.75
2022-09-03T14:45:55.007Z,3.92
2022-09-03T14:48:40.573Z,4.18
2022-09-03T14:51:19.703Z,3.83
2022-09-03T14:53:50.455Z,4.78
2022-09-03T14:56:33.649Z,4.57
2022-09-03T14:59:12.771Z,4.30
2022-09-03T15:01:40.072Z,4.10
2022-09-03T15:04:20.334Z,4.50
2022-09-03T15:07:05.834Z,5.25
2022-09-03T15:09:39.035Z,5.60
2022-09-03T15:12:19.712Z,4.53
2022-09-03T15:14:59.037Z,4.20
2022-09-03T15:17:37.816Z,4.40
2022-09-03T15:20:15.062Z,4.20
2022-09-03T15:23:19.856Z,4.03
2022-09-03T15:28:48.386Z,3.85
2022-09-03T15:31:33.439Z,4.80
2022-09-03T15:34:36.195Z,4.15
2022-09-03T15:37:13.822Z,3.85
2022-09-03T15:39:45.139Z,3.90
2022-09-03T15:42:27.425Z,3.95
2022-09-03T15:45:00.965Z,4.10
2022-09-03T15:47:51.920Z,4.22
2022-09-03T15:50:50.277Z,4.35
2022-09-03T15:53:25.550Z,4.40
2022-09-03T15:56:21.089Z,4.40
2022-09-03T15:59:03.233Z,4.55
2022-09-03T16:01:36.183Z,4.57
2022-09-03T16:04:15.780Z,4.05
2022-09-03T16:07:31.511Z,4.25
2022-09-03T16:10:25.508Z,4.20
2022-09-03T16:13:19.459Z,4.88
2022-09-03T16:16:03.692Z,4.50
2022-09-03T16:21:16.030Z,5.20
2022-09-03T16:24:20.760Z,5.03
2022-09-03T16:26:56.412Z,4.60
2022-09-03T16:29:29.199Z,4.90
2022-09-03T16:32:03.179Z,4.70
2022-09-03T16:37:22.122Z,4.72
2022-09-03T16:40:13.710Z,4.68
2022-09-03T16:42:47.715Z,4.65
2022-09-03T16:48:11.049Z,5.18
2022-09-03T16:50:53.923Z,4.68
2022-09-03T16:53:30.295Z,4.93
2022-09-03T16:56:29.907Z,4.97
2022-09-03T16:59:06.008Z,4.80
2022-09-03T17:01:53.554Z,5.20
2022-09-03T17:04:54.385Z,4.68
2022-09-03T17:07:27.350Z,4.90
2022-09-03T17:10:03.565Z,4.68
2022-09-03T17:12:33.734Z,5.70
2022-09-03T17:15:21.323Z,5.10
2022-09-03T17:18:04.912Z,5.15
2022-09-03T17:20:47.185Z,4.97
2022-09-03T17:23:44.288Z,5.00
2022-09-03T17:26:15.646Z,4.85
2022-09-03T17:29:02.554Z,5.55
2022-09-03T17:31:57.380Z,4.75
2022-09-03T17:35:15.248Z,5.20
2022-09-03T17:38:01.816Z,5.25
2022-09-03T17:40:44.506Z,5.55
2022-09-03T17:43:28.308Z,5.82
2022-09-03T17:46:07.328Z,5.88
2022-09-03T17:48:59.202Z,6.05
2022-09-03T17:51:50.590Z,6.28
2022-09-03T17:54:23.588Z,6.07
2022-09-03T17:57:11.104Z,6.63
2022-09-03T17:59:56.349Z,7.00
2022-09-03T18:02:34.994Z,7.15
2022-09-03T18:05:20.868Z,6.68
2022-09-03T18:08:00.962Z,7.07
2022-09-03T18:10:40.296Z,6.95
2022-09-03T18:13:50.267Z,6.63
2022-09-03T18:16:31.814Z,6.55
2022-09-03T18:19:18.089Z,7.18
2022-09-03T18:22:08.119Z,6.82
2022-09-03T18:25:02.412Z,8.50
2022-09-03T18:27:57.369Z,7.13
2022-09-03T18:30:47.062Z,6.55
2022-09-03T18:33:34.692Z,7.47
2022-09-03T18:36:21.229Z,9.98
2022-09-03T18:39:06.830Z,9.57
2022-09-03T18:42:24.403Z,8.60
2022-09-03T18:46:07.935Z,9.82
2022-09-03T18:48:52.359Z,7.78
2022-09-03T18:51:41.258Z,7.50
2022-09-03T18:55:07.793Z,8.05
2022-09-03T18:58:06.242Z,6.88
2022-09-03T19:00:58.812Z,8.10
2022-09-03T19:04:06.219Z,7.95
2022-09-03T19:07:23.304Z,8.02
2022-09-03T19:10:12.238Z,8.88
2022-09-03T19:13:05.908Z,7.88
2022-09-03T19:18:56.432Z,8.15
2022-09-03T19:22:02.017Z,9.15
2022-09-03T19:24:50.028Z,8.65
2022-09-03T19:27:59.337Z,9.35
2022-09-03T19:30:55.005Z,9.82
2022-09-03T19:34:03.852Z,9.20
2022-09-03T19:36:52.320Z,8.43
2022-09-03T19:39:43.980Z,8.95
2022-09-03T19:42:37.639Z,9.23
2022-09-03T19:45:42.649Z,9.65
2022-09-03T19:49:06.483Z,9.68
2022-09-03T19:52:10.178Z,9.68
2022-09-03T19:54:57.497Z,9.75
2022-09-03T19:57:45.016Z,11.00
2022-09-03T20:00:33.201Z,11.18
2022-09-03T20:03:21.199Z,10.70
2022-09-03T20:06:11.005Z,10.55
2022-09-03T20:08:57.672Z,10.75
2022-09-03T20:11:28.945Z,11.02
2022-09-03T20:14:13.868Z,10.05
2022-09-03T20:17:05.600Z,10.27
2022-09-03T20:19:37.514Z,9.63
2022-09-03T20:22:36.741Z,10.73
2022-09-03T20:25:14.842Z,11.07
2022-09-03T20:28:13.452Z,10.98
2022-09-03T20:30:46.166Z,9.82
2022-09-03T20:33:34.407Z,10.20
2022-09-03T20:36:16.965Z,9.90
2022-09-03T20:39:16.534Z,9.80
2022-09-03T20:42:03.863Z,9.45
2022-09-03T20:44:57.942Z,9.68
2022-09-03T20:47:39.889Z,10.35
2022-09-03T20:50:24.791Z,10.05
2022-09-03T20:53:43.694Z,9.98
2022-09-03T20:56:16.880Z,9.18
2022-09-03T20:58:49.976Z,9.53
2022-09-03T21:03:56.254Z,9.57
2022-09-03T21:06:26.581Z,9.43
2022-09-03T21:09:02.575Z,8.65
2022-09-03T21:11:48.076Z,9.63
2022-09-03T21:14:54.743Z,9.18
2022-09-03T21:17:34.045Z,8.82
2022-09-03T21:20:31.552Z,9.10
2022-09-03T21:23:20.157Z,9.80
2022-09-03T21:26:10.064Z,10.20
2022-09-03T21:28:40.649Z,10.38
2022-09-03T21:31:38.504Z,9.57
2022-09-03T21:34:11.449Z,9.57
2022-09-03T21:36:42.435Z,9.40
2022-09-03T21:39:31.608Z,9.27
2022-09-03T21:42:03.561Z,9.60
2022-09-03T21:45:00.859Z,9.30
2022-09-03T21:47:31.891Z,9.95
2022-09-03T21:50:16.331Z,10.65
2022-09-03T21:52:53.527Z,9.85
2022-09-03T21:55:22.293Z,9.80
2022-09-03T21:58:03.507Z,10.48
2022-09-03T22:00:33.032Z,9.43
2022-09-03T22:03:00.953Z,8.98
2022-09-03T22:05:41.527Z,8.85
2022-09-03T22:08:26.208Z,8.40
2022-09-03T22:11:08.616Z,9.48
2022-09-03T22:13:46.023Z,8.00
2022-09-03T22:16:18.231Z,8.43
2022-09-03T22:18:45.397Z,9.07
2022-09-03T22:21:24.998Z,8.15
2022-09-03T22:24:26.703Z,9.00
2022-09-03T22:26:56.800Z,8.93
2022-09-03T22:29:46.827Z,9.10
2022-09-03T22:32:25.141Z,8.63
2022-09-03T22:35:33.881Z,8.95
2022-09-03T22:38:19.257Z,8.63
2022-09-03T22:41:04.242Z,8.80
2022-09-03T22:43:35.377Z,9.05
2022-09-03T22:46:19.270Z,10.02
2022-09-03T22:49:06.607Z,9.52
2022-09-03T22:52:05.840Z,9.02
2022-09-03T22:55:05.337Z,8.73
2022-09-03T22:57:38.635Z,8.48
2022-09-03T23:00:10.844Z,8.97
2022-09-03T23:02:40.307Z,8.80
2022-09-03T23:05:48.850Z,9.50
2022-09-03T23:08:47.765Z,8.80
2022-09-03T23:11:31.167Z,8.75
2022-09-03T23:14:08.396Z,8.00
2022-09-03T23:16:52.864Z,8.88
2022-09-03T23:22:03.013Z,8.50
2022-09-03T23:24:43.706Z,8.00
2022-09-03T23:27:17.640Z,8.10
2022-09-03T23:29:54.809Z,7.65
2022-09-03T23:32:23.295Z,7.88
2022-09-03T23:34:50.778Z,7.45
2022-09-03T23:37:38.520Z,7.90
2022-09-03T23:40:30.230Z,7.93
2022-09-03T23:43:24.943Z,8.18
2022-09-03T23:46:00.989Z,7.85
2022-09-03T23:48:45.175Z,7.40
2022-09-03T23:51:24.256Z,7.97
2022-09-03T23:53:54.791Z,8.55
2022-09-03T23:56:58.860Z,8.07
2022-09-03T23:59:29.157Z,7.97
